sensor_id;sensor_type;location;lat;lon;timestamp;P1;durP1;ratioP1;P2;durP2;ratioP2
5774;SDS011;2913;51.120;6.772;2023-02-18T00:00:23;41.58;;;13.50;;
5774;SDS011;2913;51.120;6.772;2023-02-18T00:02:49;33.22;;;13.82;;
5774;SDS011;2913;51.120;6.772;2023-02-18T00:05:15;37.40;;;14.48;;
5774;SDS011;2913;51.120;6.772;2023-02-18T00:07:41;41.28;;;14.10;;
5774;SDS011;2913;51.120;6.772;2023-02-18T00:10:11;68.18;;;14.73;;
5774;SDS011;2913;51.120;6.772;2023-02-18T00:12:41;43.50;;;14.03;;
5774;SDS011;2913;51.120;6.772;2023-02-18T00:15:09;40.30;;;15.25;;
5774;SDS011;2913;51.120;6.772;2023-02-18T00:17:37;48.63;;;15.05;;
5774;SDS011;2913;51.120;6.772;2023-02-18T00:20:04;40.90;;;13.63;;
5774;SDS011;2913;51.120;6.772;2023-02-18T00:22:30;46.30;;;15.38;;
5774;SDS011;2913;51.120;6.772;2023-02-18T00:24:56;42.47;;;15.65;;
5774;SDS011;2913;51.120;6.772;2023-02-18T00:27:21;50.13;;;17.02;;
5774;SDS011;2913;51.120;6.772;2023-02-18T00:29:47;58.38;;;16.05;;
5774;SDS011;2913;51.120;6.772;2023-02-18T00:32:15;44.50;;;15.35;;
5774;SDS011;2913;51.120;6.772;2023-02-18T00:34:40;45.60;;;16.25;;
5774;SDS011;2913;51.120;6.772;2023-02-18T00:37:11;54.72;;;16.23;;
5774;SDS011;2913;51.120;6.772;2023-02-18T00:39:36;48.47;;;16.95;;
5774;SDS011;2913;51.120;6.772;2023-02-18T00:42:02;55.50;;;18.52;;
5774;SDS011;2913;51.120;6.772;2023-02-18T00:44:28;62.95;;;17.30;;
5774;SDS011;2913;51.120;6.772;2023-02-18T00:46:56;54.55;;;16.88;;
5774;SDS011;2913;51.120;6.772;2023-02-18T00:49:21;48.33;;;17.05;;
5774;SDS011;2913;51.120;6.772;2023-02-18T00:51:49;55.90;;;16.83;;
5774;SDS011;2913;51.120;6.772;2023-02-18T00:54:17;58.90;;;19.08;;
5774;SDS011;2913;51.120;6.772;2023-02-18T00:56:43;52.03;;;18.30;;
5774;SDS011;2913;51.120;6.772;2023-02-18T00:59:08;47.15;;;15.85;;
5774;SDS011;2913;51.120;6.772;2023-02-18T01:01:36;52.10;;;17.27;;
5774;SDS011;2913;51.120;6.772;2023-02-18T01:04:02;44.65;;;16.17;;
5774;SDS011;2913;51.120;6.772;2023-02-18T01:06:30;49.95;;;16.45;;
5774;SDS011;2913;51.120;6.772;2023-02-18T01:08:56;47.58;;;14.60;;
5774;SDS011;2913;51.120;6.772;2023-02-18T01:11:24;46.33;;;15.23;;
5774;SDS011;2913;51.120;6.772;2023-02-18T01:13:50;46.83;;;15.90;;
5774;SDS011;2913;51.120;6.772;2023-02-18T01:16:15;50.58;;;15.15;;
5774;SDS011;2913;51.120;6.772;2023-02-18T01:18:43;47.40;;;15.30;;
5774;SDS011;2913;51.120;6.772;2023-02-18T01:21:14;46.53;;;14.90;;
5774;SDS011;2913;51.120;6.772;2023-02-18T01:23:40;39.30;;;15.05;;
5774;SDS011;2913;51.120;6.772;2023-02-18T01:26:07;39.28;;;13.93;;
5774;SDS011;2913;51.120;6.772;2023-02-18T01:28:33;38.97;;;15.25;;
5774;SDS011;2913;51.120;6.772;2023-02-18T01:31:02;41.90;;;14.43;;
5774;SDS011;2913;51.120;6.772;2023-02-18T01:33:30;42.83;;;15.43;;
5774;SDS011;2913;51.120;6.772;2023-02-18T01:35:58;38.80;;;12.88;;
5774;SDS011;2913;51.120;6.772;2023-02-18T01:38:23;33.50;;;13.20;;
5774;SDS011;2913;51.120;6.772;2023-02-18T01:40:50;37.05;;;13.57;;
5774;SDS011;2913;51.120;6.772;2023-02-18T01:43:17;35.58;;;13.68;;
5774;SDS011;2913;51.120;6.772;2023-02-18T01:48:29;36.45;;;12.00;;
5774;SDS011;2913;51.120;6.772;2023-02-18T01:51:05;39.42;;;13.32;;
5774;SDS011;2913;51.120;6.772;2023-02-18T01:53:46;32.45;;;10.75;;
5774;SDS011;2913;51.120;6.772;2023-02-18T01:56:22;32.60;;;12.13;;
5774;SDS011;2913;51.120;6.772;2023-02-18T01:59:17;29.10;;;10.70;;
5774;SDS011;2913;51.120;6.772;2023-02-18T02:01:47;34.55;;;11.18;;
5774;SDS011;2913;51.120;6.772;2023-02-18T02:04:13;30.50;;;11.07;;
5774;SDS011;2913;51.120;6.772;2023-02-18T02:06:39;29.23;;;10.20;;
5774;SDS011;2913;51.120;6.772;2023-02-18T02:09:05;31.88;;;11.98;;
5774;SDS011;2913;51.120;6.772;2023-02-18T02:11:38;29.52;;;11.55;;
5774;SDS011;2913;51.120;6.772;2023-02-18T02:17:06;35.05;;;11.48;;
5774;SDS011;2913;51.120;6.772;2023-02-18T02:37:05;35.33;;;10.82;;
5774;SDS011;2913;51.120;6.772;2023-02-18T02:45:05;48.53;;;13.02;;
5774;SDS011;2913;51.120;6.772;2023-02-18T02:48:04;35.65;;;11.50;;
5774;SDS011;2913;51.120;6.772;2023-02-18T02:53:14;40.00;;;11.40;;
5774;SDS011;2913;51.120;6.772;2023-02-18T02:55:44;38.78;;;12.00;;
5774;SDS011;2913;51.120;6.772;2023-02-18T02:58:14;35.85;;;10.70;;
5774;SDS011;2913;51.120;6.772;2023-02-18T03:06:25;26.92;;;8.77;;
5774;SDS011;2913;51.120;6.772;2023-02-18T03:17:44;23.63;;;7.90;;
5774;SDS011;2913;51.120;6.772;2023-02-18T03:20:24;19.65;;;7.38;;
5774;SDS011;2913;51.120;6.772;2023-02-18T03:23:01;23.25;;;7.75;;
5774;SDS011;2913;51.120;6.772;2023-02-18T03:25:31;21.95;;;7.70;;
5774;SDS011;2913;51.120;6.772;2023-02-18T03:28:00;25.38;;;7.53;;
5774;SDS011;2913;51.120;6.772;2023-02-18T03:30:42;19.23;;;7.20;;
5774;SDS011;2913;51.120;6.772;2023-02-18T03:35:41;19.05;;;7.35;;
5774;SDS011;2913;51.120;6.772;2023-02-18T03:38:21;25.27;;;7.50;;
5774;SDS011;2913;51.120;6.772;2023-02-18T03:40:53;25.53;;;7.97;;
5774;SDS011;2913;51.120;6.772;2023-02-18T03:43:22;21.73;;;7.93;;
5774;SDS011;2913;51.120;6.772;2023-02-18T03:45:50;21.48;;;8.48;;
5774;SDS011;2913;51.120;6.772;2023-02-18T03:48:16;26.05;;;7.63;;
5774;SDS011;2913;51.120;6.772;2023-02-18T03:50:41;22.98;;;8.27;;
5774;SDS011;2913;51.120;6.772;2023-02-18T03:53:07;24.48;;;7.63;;
5774;SDS011;2913;51.120;6.772;2023-02-18T03:55:33;25.10;;;8.70;;
5774;SDS011;2913;51.120;6.772;2023-02-18T03:57:58;21.10;;;7.05;;
5774;SDS011;2913;51.120;6.772;2023-02-18T04:00:26;21.58;;;7.15;;
5774;SDS011;2913;51.120;6.772;2023-02-18T04:02:52;24.23;;;7.82;;
5774;SDS011;2913;51.120;6.772;2023-02-18T04:05:17;25.10;;;7.03;;
5774;SDS011;2913;51.120;6.772;2023-02-18T04:07:43;25.05;;;6.75;;
5774;SDS011;2913;51.120;6.772;2023-02-18T04:10:16;30.63;;;7.22;;
5774;SDS011;2913;51.120;6.772;2023-02-18T04:12:44;18.80;;;6.13;;
5774;SDS011;2913;51.120;6.772;2023-02-18T04:15:10;19.77;;;5.30;;
5774;SDS011;2913;51.120;6.772;2023-02-18T04:17:37;12.18;;;4.60;;
5774;SDS011;2913;51.120;6.772;2023-02-18T04:20:03;16.63;;;5.47;;
5774;SDS011;2913;51.120;6.772;2023-02-18T04:22:29;15.20;;;4.03;;
5774;SDS011;2913;51.120;6.772;2023-02-18T04:24:55;14.30;;;4.35;;
5774;SDS011;2913;51.120;6.772;2023-02-18T04:27:23;11.52;;;4.35;;
5774;SDS011;2913;51.120;6.772;2023-02-18T04:29:49;14.13;;;4.93;;
5774;SDS011;2913;51.120;6.772;2023-02-18T04:32:17;12.02;;;4.05;;
5774;SDS011;2913;51.120;6.772;2023-02-18T04:34:43;14.63;;;4.40;;
5774;SDS011;2913;51.120;6.772;2023-02-18T04:37:11;12.50;;;4.47;;
5774;SDS011;2913;51.120;6.772;2023-02-18T04:39:37;11.10;;;4.30;;
5774;SDS011;2913;51.120;6.772;2023-02-18T04:42:02;10.68;;;4.40;;
5774;SDS011;2913;51.120;6.772;2023-02-18T04:44:35;6.13;;;2.90;;
5774;SDS011;2913;51.120;6.772;2023-02-18T04:47:01;10.95;;;3.72;;
5774;SDS011;2913;51.120;6.772;2023-02-18T04:49:30;14.32;;;4.78;;
5774;SDS011;2913;51.120;6.772;2023-02-18T04:51:56;11.90;;;3.90;;
5774;SDS011;2913;51.120;6.772;2023-02-18T04:54:22;8.23;;;3.80;;
5774;SDS011;2913;51.120;6.772;2023-02-18T04:56:47;8.73;;;3.60;;
5774;SDS011;2913;51.120;6.772;2023-02-18T04:59:13;12.55;;;3.92;;
5774;SDS011;2913;51.120;6.772;2023-02-18T05:01:38;10.93;;;3.58;;
5774;SDS011;2913;51.120;6.772;2023-02-18T05:04:04;8.60;;;3.97;;
5774;SDS011;2913;51.120;6.772;2023-02-18T05:06:30;9.75;;;3.45;;
5774;SDS011;2913;51.120;6.772;2023-02-18T05:08:56;15.20;;;3.70;;
5774;SDS011;2913;51.120;6.772;2023-02-18T05:11:21;13.07;;;4.63;;
5774;SDS011;2913;51.120;6.772;2023-02-18T05:13:49;12.68;;;4.93;;
5774;SDS011;2913;51.120;6.772;2023-02-18T05:16:17;9.38;;;4.35;;
5774;SDS011;2913;51.120;6.772;2023-02-18T05:18:43;10.98;;;4.50;;
5774;SDS011;2913;51.120;6.772;2023-02-18T05:21:09;10.75;;;4.78;;
5774;SDS011;2913;51.120;6.772;2023-02-18T05:23:38;12.75;;;4.57;;
5774;SDS011;2913;51.120;6.772;2023-02-18T05:26:09;13.43;;;5.30;;
5774;SDS011;2913;51.120;6.772;2023-02-18T05:28:37;10.98;;;4.45;;
5774;SDS011;2913;51.120;6.772;2023-02-18T05:31:03;10.73;;;4.78;;
5774;SDS011;2913;51.120;6.772;2023-02-18T05:33:29;14.75;;;5.10;;
5774;SDS011;2913;51.120;6.772;2023-02-18T05:35:57;10.38;;;4.25;;
5774;SDS011;2913;51.120;6.772;2023-02-18T05:38:25;10.60;;;4.63;;
5774;SDS011;2913;51.120;6.772;2023-02-18T05:40:51;12.40;;;5.13;;
5774;SDS011;2913;51.120;6.772;2023-02-18T05:43:19;12.57;;;4.53;;
5774;SDS011;2913;51.120;6.772;2023-02-18T05:45:44;17.33;;;4.65;;
5774;SDS011;2913;51.120;6.772;2023-02-18T05:48:10;17.75;;;5.55;;
5774;SDS011;2913;51.120;6.772;2023-02-18T05:50:35;14.32;;;4.90;;
5774;SDS011;2913;51.120;6.772;2023-02-18T05:53:03;13.00;;;5.03;;
5774;SDS011;2913;51.120;6.772;2023-02-18T05:55:29;12.88;;;4.65;;
5774;SDS011;2913;51.120;6.772;2023-02-18T05:57:54;14.55;;;4.65;;
5774;SDS011;2913;51.120;6.772;2023-02-18T06:00:20;13.10;;;4.15;;
5774;SDS011;2913;51.120;6.772;2023-02-18T06:02:46;10.95;;;4.20;;
5774;SDS011;2913;51.120;6.772;2023-02-18T06:05:11;13.38;;;4.30;;
5774;SDS011;2913;51.120;6.772;2023-02-18T06:07:37;12.32;;;3.30;;
5774;SDS011;2913;51.120;6.772;2023-02-18T06:10:03;11.05;;;3.83;;
5774;SDS011;2913;51.120;6.772;2023-02-18T06:12:32;12.30;;;4.57;;
5774;SDS011;2913;51.120;6.772;2023-02-18T06:14:57;13.40;;;4.53;;
5774;SDS011;2913;51.120;6.772;2023-02-18T06:17:23;8.93;;;3.95;;
5774;SDS011;2913;51.120;6.772;2023-02-18T06:19:48;7.55;;;3.53;;
5774;SDS011;2913;51.120;6.772;2023-02-18T06:22:16;10.55;;;3.97;;
5774;SDS011;2913;51.120;6.772;2023-02-18T06:24:44;9.30;;;3.90;;
5774;SDS011;2913;51.120;6.772;2023-02-18T06:27:10;10.57;;;4.05;;
5774;SDS011;2913;51.120;6.772;2023-02-18T06:29:38;8.95;;;3.33;;
5774;SDS011;2913;51.120;6.772;2023-02-18T06:32:06;8.70;;;3.20;;
5774;SDS011;2913;51.120;6.772;2023-02-18T06:34:34;9.15;;;3.42;;
5774;SDS011;2913;51.120;6.772;2023-02-18T06:36:59;8.15;;;3.55;;
5774;SDS011;2913;51.120;6.772;2023-02-18T06:39:25;7.10;;;3.05;;
5774;SDS011;2913;51.120;6.772;2023-02-18T06:41:53;6.97;;;2.60;;
5774;SDS011;2913;51.120;6.772;2023-02-18T06:44:19;10.50;;;3.70;;
5774;SDS011;2913;51.120;6.772;2023-02-18T06:46:44;8.30;;;3.95;;
5774;SDS011;2913;51.120;6.772;2023-02-18T06:49:10;8.55;;;3.22;;
5774;SDS011;2913;51.120;6.772;2023-02-18T06:51:36;13.48;;;3.72;;
5774;SDS011;2913;51.120;6.772;2023-02-18T06:54:04;8.50;;;3.60;;
5774;SDS011;2913;51.120;6.772;2023-02-18T06:56:32;9.95;;;3.83;;
5774;SDS011;2913;51.120;6.772;2023-02-18T06:58:59;6.15;;;2.20;;
5774;SDS011;2913;51.120;6.772;2023-02-18T07:01:27;13.50;;;3.10;;
5774;SDS011;2913;51.120;6.772;2023-02-18T07:03:55;7.40;;;2.65;;
5774;SDS011;2913;51.120;6.772;2023-02-18T07:06:23;8.63;;;3.47;;
5774;SDS011;2913;51.120;6.772;2023-02-18T07:08:49;8.13;;;3.42;;
5774;SDS011;2913;51.120;6.772;2023-02-18T07:11:17;8.18;;;2.33;;
5774;SDS011;2913;51.120;6.772;2023-02-18T07:13:42;5.28;;;2.00;;
5774;SDS011;2913;51.120;6.772;2023-02-18T07:16:08;7.05;;;3.00;;
5774;SDS011;2913;51.120;6.772;2023-02-18T07:18:34;7.70;;;2.53;;
5774;SDS011;2913;51.120;6.772;2023-02-18T07:21:04;5.25;;;2.15;;
5774;SDS011;2913;51.120;6.772;2023-02-18T07:23:32;6.15;;;2.38;;
5774;SDS011;2913;51.120;6.772;2023-02-18T07:26:04;5.93;;;2.60;;
5774;SDS011;2913;51.120;6.772;2023-02-18T07:31:01;7.75;;;2.03;;
5774;SDS011;2913;51.120;6.772;2023-02-18T07:33:29;6.60;;;2.60;;
5774;SDS011;2913;51.120;6.772;2023-02-18T07:35:55;5.35;;;2.42;;
5774;SDS011;2913;51.120;6.772;2023-02-18T07:38:22;6.32;;;2.08;;
5774;SDS011;2913;51.120;6.772;2023-02-18T07:40:50;6.50;;;2.63;;
5774;SDS011;2913;51.120;6.772;2023-02-18T07:43:17;5.18;;;2.15;;
5774;SDS011;2913;51.120;6.772;2023-02-18T07:45:43;8.43;;;2.65;;
5774;SDS011;2913;51.120;6.772;2023-02-18T07:48:09;4.82;;;2.28;;
5774;SDS011;2913;51.120;6.772;2023-02-18T07:50:40;6.65;;;2.83;;
5774;SDS011;2913;51.120;6.772;2023-02-18T07:53:12;6.13;;;2.15;;
5774;SDS011;2913;51.120;6.772;2023-02-18T07:55:39;4.65;;;2.30;;
5774;SDS011;2913;51.120;6.772;2023-02-18T07:58:24;6.60;;;2.10;;
5774;SDS011;2913;51.120;6.772;2023-02-18T08:00:51;6.40;;;2.15;;
5774;SDS011;2913;51.120;6.772;2023-02-18T08:03:19;3.92;;;1.80;;
5774;SDS011;2913;51.120;6.772;2023-02-18T08:05:48;6.45;;;1.92;;
5774;SDS011;2913;51.120;6.772;2023-02-18T08:08:17;7.93;;;2.00;;
5774;SDS011;2913;51.120;6.772;2023-02-18T08:13:13;10.38;;;2.25;;
5774;SDS011;2913;51.120;6.772;2023-02-18T08:15:39;6.95;;;2.83;;
5774;SDS011;2913;51.120;6.772;2023-02-18T08:18:05;12.52;;;2.58;;
5774;SDS011;2913;51.120;6.772;2023-02-18T08:20:35;8.93;;;3.17;;
5774;SDS011;2913;51.120;6.772;2023-02-18T08:23:03;9.77;;;2.97;;
5774;SDS011;2913;51.120;6.772;2023-02-18T08:25:31;7.05;;;3.13;;
5774;SDS011;2913;51.120;6.772;2023-02-18T08:27:59;14.52;;;3.53;;
5774;SDS011;2913;51.120;6.772;2023-02-18T08:30:25;13.27;;;3.28;;
5774;SDS011;2913;51.120;6.772;2023-02-18T08:32:53;7.85;;;2.53;;
5774;SDS011;2913;51.120;6.772;2023-02-18T08:35:19;18.38;;;3.50;;
5774;SDS011;2913;51.120;6.772;2023-02-18T08:37:47;18.85;;;3.15;;
5774;SDS011;2913;51.120;6.772;2023-02-18T08:40:13;10.05;;;2.97;;
5774;SDS011;2913;51.120;6.772;2023-02-18T08:42:41;15.98;;;3.65;;
5774;SDS011;2913;51.120;6.772;2023-02-18T08:45:09;12.90;;;3.17;;
5774;SDS011;2913;51.120;6.772;2023-02-18T08:47:35;10.35;;;3.45;;
5774;SDS011;2913;51.120;6.772;2023-02-18T08:50:00;24.50;;;3.63;;
5774;SDS011;2913;51.120;6.772;2023-02-18T08:52:28;28.67;;;4.70;;
5774;SDS011;2913;51.120;6.772;2023-02-18T08:54:56;16.27;;;3.28;;
5774;SDS011;2913;51.120;6.772;2023-02-18T08:57:21;10.93;;;3.65;;
5774;SDS011;2913;51.120;6.772;2023-02-18T08:59:47;21.27;;;3.50;;
5774;SDS011;2913;51.120;6.772;2023-02-18T09:02:15;16.33;;;3.13;;
5774;SDS011;2913;51.120;6.772;2023-02-18T09:04:43;17.02;;;3.28;;
5774;SDS011;2913;51.120;6.772;2023-02-18T09:07:11;13.38;;;3.17;;
5774;SDS011;2913;51.120;6.772;2023-02-18T09:09:37;17.00;;;3.97;;
5774;SDS011;2913;51.120;6.772;2023-02-18T09:12:06;28.20;;;4.70;;
5774;SDS011;2913;51.120;6.772;2023-02-18T09:14:32;25.15;;;3.90;;
5774;SDS011;2913;51.120;6.772;2023-02-18T09:16:58;23.00;;;4.63;;
5774;SDS011;2913;51.120;6.772;2023-02-18T09:19:24;20.33;;;4.22;;
5774;SDS011;2913;51.120;6.772;2023-02-18T09:21:57;28.00;;;4.68;;
5774;SDS011;2913;51.120;6.772;2023-02-18T09:24:23;34.15;;;4.25;;
5774;SDS011;2913;51.120;6.772;2023-02-18T09:26:53;17.77;;;3.65;;
5774;SDS011;2913;51.120;6.772;2023-02-18T09:29:19;25.92;;;5.47;;
5774;SDS011;2913;51.120;6.772;2023-02-18T09:31:45;26.45;;;4.95;;
5774;SDS011;2913;51.120;6.772;2023-02-18T09:34:13;33.35;;;4.45;;
5774;SDS011;2913;51.120;6.772;2023-02-18T09:36:42;27.60;;;4.70;;
5774;SDS011;2913;51.120;6.772;2023-02-18T09:39:09;23.85;;;4.25;;
5774;SDS011;2913;51.120;6.772;2023-02-18T09:41:41;20.38;;;4.57;;
5774;SDS011;2913;51.120;6.772;2023-02-18T09:44:19;41.15;;;4.55;;
5774;SDS011;2913;51.120;6.772;2023-02-18T09:47:02;22.83;;;4.90;;
5774;SDS011;2913;51.120;6.772;2023-02-18T09:49:37;28.15;;;4.95;;
5774;SDS011;2913;51.120;6.772;2023-02-18T09:52:27;21.10;;;3.60;;
5774;SDS011;2913;51.120;6.772;2023-02-18T09:54:59;17.70;;;3.97;;
5774;SDS011;2913;51.120;6.772;2023-02-18T09:57:43;20.13;;;4.10;;
5774;SDS011;2913;51.120;6.772;2023-02-18T10:00:14;28.52;;;6.57;;
5774;SDS011;2913;51.120;6.772;2023-02-18T10:05:38;22.08;;;4.57;;
5774;SDS011;2913;51.120;6.772;2023-02-18T10:10:57;31.25;;;3.88;;
5774;SDS011;2913;51.120;6.772;2023-02-18T10:13:28;21.20;;;4.57;;
5774;SDS011;2913;51.120;6.772;2023-02-18T10:15:55;23.73;;;3.75;;
5774;SDS011;2913;51.120;6.772;2023-02-18T10:18:38;18.70;;;4.03;;
5774;SDS011;2913;51.120;6.772;2023-02-18T10:24:11;36.53;;;4.60;;
5774;SDS011;2913;51.120;6.772;2023-02-18T10:26:56;29.90;;;5.07;;
5774;SDS011;2913;51.120;6.772;2023-02-18T10:29:23;47.78;;;5.53;;
5774;SDS011;2913;51.120;6.772;2023-02-18T10:34:29;17.52;;;3.60;;
5774;SDS011;2913;51.120;6.772;2023-02-18T10:37:13;27.67;;;4.60;;
5774;SDS011;2913;51.120;6.772;2023-02-18T10:40:08;25.00;;;4.30;;
5774;SDS011;2913;51.120;6.772;2023-02-18T10:49:47;28.00;;;4.90;;
5774;SDS011;2913;51.120;6.772;2023-02-18T10:51:36;35.30;;;6.72;;
5774;SDS011;2913;51.120;6.772;2023-02-18T10:54:06;24.25;;;5.00;;
5774;SDS011;2913;51.120;6.772;2023-02-18T10:56:36;25.98;;;6.03;;
5774;SDS011;2913;51.120;6.772;2023-02-18T11:01:44;16.15;;;5.22;;
5774;SDS011;2913;51.120;6.772;2023-02-18T11:04:19;18.98;;;4.65;;
5774;SDS011;2913;51.120;6.772;2023-02-18T11:06:46;14.95;;;3.58;;
5774;SDS011;2913;51.120;6.772;2023-02-18T11:09:25;17.58;;;4.22;;
5774;SDS011;2913;51.120;6.772;2023-02-18T11:12:02;19.25;;;4.20;;
5774;SDS011;2913;51.120;6.772;2023-02-18T11:14:38;16.20;;;4.43;;
5774;SDS011;2913;51.120;6.772;2023-02-18T11:20:22;23.17;;;4.18;;
5774;SDS011;2913;51.120;6.772;2023-02-18T11:22:50;15.65;;;4.40;;
5774;SDS011;2913;51.120;6.772;2023-02-18T11:25:24;28.00;;;5.05;;
5774;SDS011;2913;51.120;6.772;2023-02-18T11:27:55;14.95;;;4.25;;
5774;SDS011;2913;51.120;6.772;2023-02-18T11:33:13;23.33;;;5.03;;
5774;SDS011;2913;51.120;6.772;2023-02-18T11:35:50;14.20;;;4.95;;
5774;SDS011;2913;51.120;6.772;2023-02-18T11:40:53;18.33;;;4.10;;
5774;SDS011;2913;51.120;6.772;2023-02-18T11:43:21;21.17;;;5.10;;
5774;SDS011;2913;51.120;6.772;2023-02-18T11:46:06;11.93;;;3.25;;
5774;SDS011;2913;51.120;6.772;2023-02-18T11:48:33;10.02;;;4.10;;
5774;SDS011;2913;51.120;6.772;2023-02-18T11:51:02;8.50;;;3.63;;
5774;SDS011;2913;51.120;6.772;2023-02-18T11:53:32;15.90;;;3.70;;
5774;SDS011;2913;51.120;6.772;2023-02-18T11:56:05;12.52;;;3.60;;
5774;SDS011;2913;51.120;6.772;2023-02-18T11:58:47;15.68;;;3.78;;
5774;SDS011;2913;51.120;6.772;2023-02-18T12:01:17;11.63;;;4.30;;
5774;SDS011;2913;51.120;6.772;2023-02-18T12:07:18;17.75;;;4.35;;
5774;SDS011;2913;51.120;6.772;2023-02-18T12:09:54;23.38;;;4.13;;
5774;SDS011;2913;51.120;6.772;2023-02-18T12:14:54;13.10;;;4.40;;
5774;SDS011;2913;51.120;6.772;2023-02-18T12:22:30;12.45;;;4.50;;
5774;SDS011;2913;51.120;6.772;2023-02-18T12:36:13;12.82;;;4.22;;
5774;SDS011;2913;51.120;6.772;2023-02-18T12:39:11;13.40;;;4.43;;
5774;SDS011;2913;51.120;6.772;2023-02-18T12:50:08;12.52;;;4.80;;
5774;SDS011;2913;51.120;6.772;2023-02-18T13:01:02;14.32;;;5.47;;
5774;SDS011;2913;51.120;6.772;2023-02-18T13:03:50;15.98;;;4.50;;
5774;SDS011;2913;51.120;6.772;2023-02-18T13:12:13;19.88;;;5.60;;
5774;SDS011;2913;51.120;6.772;2023-02-18T13:17:13;14.20;;;4.55;;
5774;SDS011;2913;51.120;6.772;2023-02-18T13:20:07;16.77;;;5.53;;
5774;SDS011;2913;51.120;6.772;2023-02-18T13:22:38;13.07;;;5.38;;
5774;SDS011;2913;51.120;6.772;2023-02-18T13:25:10;15.48;;;4.95;;
5774;SDS011;2913;51.120;6.772;2023-02-18T13:27:52;13.73;;;5.25;;
5774;SDS011;2913;51.120;6.772;2023-02-18T13:35:44;13.15;;;5.38;;
5774;SDS011;2913;51.120;6.772;2023-02-18T13:41:12;17.10;;;6.15;;
5774;SDS011;2913;51.120;6.772;2023-02-18T13:43:40;19.88;;;4.90;;
5774;SDS011;2913;51.120;6.772;2023-02-18T13:46:12;17.10;;;6.40;;
5774;SDS011;2913;51.120;6.772;2023-02-18T13:48:52;10.55;;;4.68;;
5774;SDS011;2913;51.120;6.772;2023-02-18T13:51:40;18.42;;;7.07;;
5774;SDS011;2913;51.120;6.772;2023-02-18T13:54:21;20.35;;;6.53;;
5774;SDS011;2913;51.120;6.772;2023-02-18T13:56:56;17.88;;;5.90;;
5774;SDS011;2913;51.120;6.772;2023-02-18T13:59:31;16.52;;;5.80;;
5774;SDS011;2913;51.120;6.772;2023-02-18T14:09:55;12.95;;;5.45;;
5774;SDS011;2913;51.120;6.772;2023-02-18T14:12:24;14.98;;;6.15;;
5774;SDS011;2913;51.120;6.772;2023-02-18T14:17:43;14.88;;;5.60;;
5774;SDS011;2913;51.120;6.772;2023-02-18T14:25:38;19.83;;;6.13;;
5774;SDS011;2913;51.120;6.772;2023-02-18T14:31:15;18.40;;;5.78;;
5774;SDS011;2913;51.120;6.772;2023-02-18T14:34:08;13.77;;;5.57;;
5774;SDS011;2913;51.120;6.772;2023-02-18T14:39:56;28.40;;;6.20;;
5774;SDS011;2913;51.120;6.772;2023-02-18T14:42:53;23.20;;;6.35;;
5774;SDS011;2913;51.120;6.772;2023-02-18T14:51:25;18.25;;;5.68;;
5774;SDS011;2913;51.120;6.772;2023-02-18T14:53:55;16.13;;;6.68;;
5774;SDS011;2913;51.120;6.772;2023-02-18T14:56:26;18.20;;;6.55;;
5774;SDS011;2913;51.120;6.772;2023-02-18T14:58:58;17.35;;;6.65;;
5774;SDS011;2913;51.120;6.772;2023-02-18T15:01:30;12.57;;;6.15;;
5774;SDS011;2913;51.120;6.772;2023-02-18T15:03:57;17.65;;;7.05;;
5774;SDS011;2913;51.120;6.772;2023-02-18T15:06:27;18.00;;;6.28;;
5774;SDS011;2913;51.120;6.772;2023-02-18T15:08:55;11.25;;;4.88;;
5774;SDS011;2913;51.120;6.772;2023-02-18T15:11:29;15.25;;;6.43;;
5774;SDS011;2913;51.120;6.772;2023-02-18T15:14:18;16.85;;;6.93;;
5774;SDS011;2913;51.120;6.772;2023-02-18T15:16:47;21.73;;;7.93;;
5774;SDS011;2913;51.120;6.772;2023-02-18T15:19:14;17.25;;;7.05;;
5774;SDS011;2913;51.120;6.772;2023-02-18T15:21:43;12.70;;;6.35;;
5774;SDS011;2913;51.120;6.772;2023-02-18T15:24:20;13.27;;;6.57;;
5774;SDS011;2913;51.120;6.772;2023-02-18T15:26:53;25.40;;;7.32;;
5774;SDS011;2913;51.120;6.772;2023-02-18T15:31:48;14.27;;;6.97;;
5774;SDS011;2913;51.120;6.772;2023-02-18T15:36:58;21.15;;;7.63;;
5774;SDS011;2913;51.120;6.772;2023-02-18T15:39:27;14.57;;;6.88;;
5774;SDS011;2913;51.120;6.772;2023-02-18T15:41:57;19.77;;;7.07;;
5774;SDS011;2913;51.120;6.772;2023-02-18T15:44:27;19.02;;;6.68;;
5774;SDS011;2913;51.120;6.772;2023-02-18T15:47:03;17.35;;;6.70;;
5774;SDS011;2913;51.120;6.772;2023-02-18T15:49:35;21.05;;;6.72;;
5774;SDS011;2913;51.120;6.772;2023-02-18T15:52:03;20.42;;;7.13;;
5774;SDS011;2913;51.120;6.772;2023-02-18T15:54:32;17.13;;;7.55;;
5774;SDS011;2913;51.120;6.772;2023-02-18T15:57:00;28.98;;;9.02;;
5774;SDS011;2913;51.120;6.772;2023-02-18T15:59:33;16.90;;;7.93;;
5774;SDS011;2913;51.120;6.772;2023-02-18T16:04:38;24.42;;;8.73;;
5774;SDS011;2913;51.120;6.772;2023-02-18T16:07:20;41.38;;;9.60;;
5774;SDS011;2913;51.120;6.772;2023-02-18T16:10:07;50.80;;;11.90;;
5774;SDS011;2913;51.120;6.772;2023-02-18T16:12:39;33.53;;;11.15;;
5774;SDS011;2913;51.120;6.772;2023-02-18T16:15:05;25.50;;;8.38;;
5774;SDS011;2913;51.120;6.772;2023-02-18T16:17:36;17.75;;;7.80;;
5774;SDS011;2913;51.120;6.772;2023-02-18T16:20:24;15.75;;;7.55;;
5774;SDS011;2913;51.120;6.772;2023-02-18T16:22:54;19.27;;;8.32;;
5774;SDS011;2913;51.120;6.772;2023-02-18T16:25:34;25.90;;;9.18;;
5774;SDS011;2913;51.120;6.772;2023-02-18T16:30:54;37.90;;;10.77;;
5774;SDS011;2913;51.120;6.772;2023-02-18T16:33:22;22.80;;;7.57;;
5774;SDS011;2913;51.120;6.772;2023-02-18T16:35:47;26.75;;;9.82;;
5774;SDS011;2913;51.120;6.772;2023-02-18T16:38:17;35.33;;;8.90;;
5774;SDS011;2913;51.120;6.772;2023-02-18T16:40:45;18.55;;;8.00;;
5774;SDS011;2913;51.120;6.772;2023-02-18T16:43:18;22.70;;;7.95;;
5774;SDS011;2913;51.120;6.772;2023-02-18T16:45:46;22.27;;;8.88;;
5774;SDS011;2913;51.120;6.772;2023-02-18T16:48:40;23.55;;;8.82;;
5774;SDS011;2913;51.120;6.772;2023-02-18T16:51:16;23.10;;;9.45;;
5774;SDS011;2913;51.120;6.772;2023-02-18T16:53:46;22.33;;;9.50;;
5774;SDS011;2913;51.120;6.772;2023-02-18T16:56:16;18.95;;;7.05;;
5774;SDS011;2913;51.120;6.772;2023-02-18T16:58:43;23.55;;;9.57;;
5774;SDS011;2913;51.120;6.772;2023-02-18T17:01:25;32.33;;;11.88;;
5774;SDS011;2913;51.120;6.772;2023-02-18T17:04:14;23.02;;;9.23;;
5774;SDS011;2913;51.120;6.772;2023-02-18T17:06:44;28.85;;;10.60;;
5774;SDS011;2913;51.120;6.772;2023-02-18T17:09:16;47.20;;;17.98;;
5774;SDS011;2913;51.120;6.772;2023-02-18T17:11:45;25.67;;;12.23;;
5774;SDS011;2913;51.120;6.772;2023-02-18T17:14:16;21.90;;;7.90;;
5774;SDS011;2913;51.120;6.772;2023-02-18T17:16:43;22.20;;;8.57;;
5774;SDS011;2913;51.120;6.772;2023-02-18T17:19:10;30.48;;;11.15;;
5774;SDS011;2913;51.120;6.772;2023-02-18T17:21:35;26.15;;;11.00;;
5774;SDS011;2913;51.120;6.772;2023-02-18T17:24:03;24.77;;;9.73;;
5774;SDS011;2913;51.120;6.772;2023-02-18T17:26:32;33.63;;;10.57;;
5774;SDS011;2913;51.120;6.772;2023-02-18T17:28:58;29.20;;;11.07;;
5774;SDS011;2913;51.120;6.772;2023-02-18T17:31:25;27.95;;;10.73;;
5774;SDS011;2913;51.120;6.772;2023-02-18T17:33:53;23.17;;;10.55;;
5774;SDS011;2913;51.120;6.772;2023-02-18T17:36:20;29.30;;;10.15;;
5774;SDS011;2913;51.120;6.772;2023-02-18T17:38:47;29.27;;;11.15;;
5774;SDS011;2913;51.120;6.772;2023-02-18T17:41:17;22.73;;;10.00;;
5774;SDS011;2913;51.120;6.772;2023-02-18T17:43:46;30.48;;;12.07;;
5774;SDS011;2913;51.120;6.772;2023-02-18T17:46:13;20.95;;;9.55;;
5774;SDS011;2913;51.120;6.772;2023-02-18T17:48:42;23.33;;;11.10;;
5774;SDS011;2913;51.120;6.772;2023-02-18T17:51:21;30.67;;;10.30;;
5774;SDS011;2913;51.120;6.772;2023-02-18T17:53:51;25.13;;;10.30;;
5774;SDS011;2913;51.120;6.772;2023-02-18T17:56:17;32.88;;;12.38;;
5774;SDS011;2913;51.120;6.772;2023-02-18T17:58:43;31.23;;;12.70;;
5774;SDS011;2913;51.120;6.772;2023-02-18T18:01:12;26.10;;;11.02;;
5774;SDS011;2913;51.120;6.772;2023-02-18T18:03:42;26.90;;;10.98;;
5774;SDS011;2913;51.120;6.772;2023-02-18T18:06:17;35.58;;;13.38;;
5774;SDS011;2913;51.120;6.772;2023-02-18T18:08:44;32.47;;;11.60;;
5774;SDS011;2913;51.120;6.772;2023-02-18T18:11:18;43.10;;;15.00;;
5774;SDS011;2913;51.120;6.772;2023-02-18T18:13:45;30.08;;;13.85;;